sensor_id;sensor_type;location;lat;lon;timestamp;temperature;humidity
70089;HTU21D;57460;47.134;19.888;2023-05-14T00:01:12;13.86;70.89
70089;HTU21D;57460;47.134;19.888;2023-05-14T00:03:38;13.86;71.84
70089;HTU21D;57460;47.134;19.888;2023-05-14T00:06:06;13.85;71.14
70089;HTU21D;57460;47.134;19.888;2023-05-14T00:08:32;13.86;70.87
70089;HTU21D;57460;47.134;19.888;2023-05-14T00:10:58;13.84;71.86
70089;HTU21D;57460;47.134;19.888;2023-05-14T00:13:25;13.83;70.58
70089;HTU21D;57460;47.134;19.888;2023-05-14T00:15:51;13.77;71.90
70089;HTU21D;57460;47.134;19.888;2023-05-14T00:18:17;13.74;72.21
70089;HTU21D;57460;47.134;19.888;2023-05-14T00:20:45;13.68;71.97
70089;HTU21D;57460;47.134;19.888;2023-05-14T00:23:11;13.63;72.93
70089;HTU21D;57460;47.134;19.888;2023-05-14T00:25:37;13.61;72.18
70089;HTU21D;57460;47.134;19.888;2023-05-14T00:28:06;13.62;71.93
70089;HTU21D;57460;47.134;19.888;2023-05-14T00:30:32;13.62;72.02
70089;HTU21D;57460;47.134;19.888;2023-05-14T00:32:57;13.59;72.08
70089;HTU21D;57460;47.134;19.888;2023-05-14T00:35:23;13.56;70.43
70089;HTU21D;57460;47.134;19.888;2023-05-14T00:37:49;13.48;72.00
70089;HTU21D;57460;47.134;19.888;2023-05-14T00:40:15;13.40;73.86
70089;HTU21D;57460;47.134;19.888;2023-05-14T00:43:09;13.34;73.19
70089;HTU21D;57460;47.134;19.888;2023-05-14T00:45:35;13.35;72.58
70089;HTU21D;57460;47.134;19.888;2023-05-14T00:48:01;13.34;73.38
70089;HTU21D;57460;47.134;19.888;2023-05-14T00:50:28;13.39;72.74
70089;HTU21D;57460;47.134;19.888;2023-05-14T00:52:54;13.41;72.67
70089;HTU21D;57460;47.134;19.888;2023-05-14T00:55:20;13.37;73.25
70089;HTU21D;57460;47.134;19.888;2023-05-14T00:57:50;13.34;73.18
70089;HTU21D;57460;47.134;19.888;2023-05-14T01:00:18;13.33;72.68
70089;HTU21D;57460;47.134;19.888;2023-05-14T01:02:47;13.33;72.64
70089;HTU21D;57460;47.134;19.888;2023-05-14T01:05:13;13.35;71.87
70089;HTU21D;57460;47.134;19.888;2023-05-14T01:07:56;13.33;73.19
70089;HTU21D;57460;47.134;19.888;2023-05-14T01:10:50;13.29;72.48
70089;HTU21D;57460;47.134;19.888;2023-05-14T01:13:35;13.24;72.90
70089;HTU21D;57460;47.134;19.888;2023-05-14T01:16:10;13.23;72.45
70089;HTU21D;57460;47.134;19.888;2023-05-14T01:18:39;13.21;71.39
70089;HTU21D;57460;47.134;19.888;2023-05-14T01:21:22;13.14;72.31
70089;HTU21D;57460;47.134;19.888;2023-05-14T01:23:51;13.08;72.99
70089;HTU21D;57460;47.134;19.888;2023-05-14T01:26:17;13.05;72.00
70089;HTU21D;57460;47.134;19.888;2023-05-14T01:28:44;13.05;72.66
70089;HTU21D;57460;47.134;19.888;2023-05-14T01:31:17;13.03;72.85
70089;HTU21D;57460;47.134;19.888;2023-05-14T01:33:51;13.03;73.08
70089;HTU21D;57460;47.134;19.888;2023-05-14T01:36:18;13.03;73.09
70089;HTU21D;57460;47.134;19.888;2023-05-14T01:38:45;13.01;72.84
70089;HTU21D;57460;47.134;19.888;2023-05-14T01:41:13;13.02;72.46
70089;HTU21D;57460;47.134;19.888;2023-05-14T01:43:40;13.01;72.41
70089;HTU21D;57460;47.134;19.888;2023-05-14T01:46:06;13.01;72.06
70089;HTU21D;57460;47.134;19.888;2023-05-14T01:48:32;12.95;73.53
70089;HTU21D;57460;47.134;19.888;2023-05-14T01:50:58;12.94;73.37
70089;HTU21D;57460;47.134;19.888;2023-05-14T01:53:24;12.88;73.52
70089;HTU21D;57460;47.134;19.888;2023-05-14T01:55:50;12.86;73.34
70089;HTU21D;57460;47.134;19.888;2023-05-14T01:58:16;12.85;73.04
70089;HTU21D;57460;47.134;19.888;2023-05-14T02:00:42;12.85;72.27
70089;HTU21D;57460;47.134;19.888;2023-05-14T02:03:08;12.81;72.87
70089;HTU21D;57460;47.134;19.888;2023-05-14T02:05:33;12.80;71.91
70089;HTU21D;57460;47.134;19.888;2023-05-14T02:07:59;12.75;72.82
70089;HTU21D;57460;47.134;19.888;2023-05-14T02:10:25;12.72;72.99
70089;HTU21D;57460;47.134;19.888;2023-05-14T02:12:51;12.70;73.05
70089;HTU21D;57460;47.134;19.888;2023-05-14T02:15:25;12.72;72.38
70089;HTU21D;57460;47.134;19.888;2023-05-14T02:17:51;12.69;73.21
70089;HTU21D;57460;47.134;19.888;2023-05-14T02:20:17;12.64;73.57
70089;HTU21D;57460;47.134;19.888;2023-05-14T02:22:43;12.60;73.22
70089;HTU21D;57460;47.134;19.888;2023-05-14T02:25:10;12.58;73.70
70089;HTU21D;57460;47.134;19.888;2023-05-14T02:27:37;12.55;74.66
70089;HTU21D;57460;47.134;19.888;2023-05-14T02:30:03;12.51;73.88
70089;HTU21D;57460;47.134;19.888;2023-05-14T02:32:30;12.49;74.78
70089;HTU21D;57460;47.134;19.888;2023-05-14T02:34:56;12.51;73.69
70089;HTU21D;57460;47.134;19.888;2023-05-14T02:37:22;12.51;73.71
70089;HTU21D;57460;47.134;19.888;2023-05-14T02:39:47;12.55;73.94
70089;HTU21D;57460;47.134;19.888;2023-05-14T02:42:13;12.53;73.71
70089;HTU21D;57460;47.134;19.888;2023-05-14T02:44:39;12.52;73.76
70089;HTU21D;57460;47.134;19.888;2023-05-14T02:47:05;12.56;73.71
70089;HTU21D;57460;47.134;19.888;2023-05-14T02:49:31;12.58;73.39
70089;HTU21D;57460;47.134;19.888;2023-05-14T02:51:57;12.60;73.93
70089;HTU21D;57460;47.134;19.888;2023-05-14T02:54:25;12.61;73.49
70089;HTU21D;57460;47.134;19.888;2023-05-14T02:57:00;12.64;73.15
70089;HTU21D;57460;47.134;19.888;2023-05-14T02:59:26;12.66;72.94
70089;HTU21D;57460;47.134;19.888;2023-05-14T03:01:52;12.69;72.78
70089;HTU21D;57460;47.134;19.888;2023-05-14T03:04:18;12.67;73.30
70089;HTU21D;57460;47.134;19.888;2023-05-14T03:06:44;12.66;73.04
70089;HTU21D;57460;47.134;19.888;2023-05-14T03:09:09;12.66;72.70
70089;HTU21D;57460;47.134;19.888;2023-05-14T03:11:35;12.66;73.27
70089;HTU21D;57460;47.134;19.888;2023-05-14T03:14:01;12.67;73.13
70089;HTU21D;57460;47.134;19.888;2023-05-14T03:16:27;12.66;73.22
70089;HTU21D;57460;47.134;19.888;2023-05-14T03:18:53;12.69;73.57
70089;HTU21D;57460;47.134;19.888;2023-05-14T03:21:19;12.73;72.87
70089;HTU21D;57460;47.134;19.888;2023-05-14T03:23:45;12.74;73.44
70089;HTU21D;57460;47.134;19.888;2023-05-14T03:26:10;12.75;72.79
70089;HTU21D;57460;47.134;19.888;2023-05-14T03:28:36;12.77;72.93
70089;HTU21D;57460;47.134;19.888;2023-05-14T03:31:02;12.77;72.46
70089;HTU21D;57460;47.134;19.888;2023-05-14T03:33:28;12.76;72.56
70089;HTU21D;57460;47.134;19.888;2023-05-14T03:35:54;12.73;72.91
70089;HTU21D;57460;47.134;19.888;2023-05-14T03:38:20;12.72;72.63
70089;HTU21D;57460;47.134;19.888;2023-05-14T03:40:46;12.67;73.74
70089;HTU21D;57460;47.134;19.888;2023-05-14T03:43:12;12.64;74.17
70089;HTU21D;57460;47.134;19.888;2023-05-14T03:45:38;12.66;73.12
70089;HTU21D;57460;47.134;19.888;2023-05-14T03:48:05;12.65;73.48
70089;HTU21D;57460;47.134;19.888;2023-05-14T03:50:31;12.69;73.35
70089;HTU21D;57460;47.134;19.888;2023-05-14T03:52:57;12.70;73.06
70089;HTU21D;57460;47.134;19.888;2023-05-14T03:55:23;12.74;72.74
70089;HTU21D;57460;47.134;19.888;2023-05-14T03:57:48;12.76;72.70
70089;HTU21D;57460;47.134;19.888;2023-05-14T04:00:14;12.74;73.35
70089;HTU21D;57460;47.134;19.888;2023-05-14T04:02:41;12.71;73.13
70089;HTU21D;57460;47.134;19.888;2023-05-14T04:05:07;12.69;73.01
70089;HTU21D;57460;47.134;19.888;2023-05-14T04:07:33;12.67;74.11
70089;HTU21D;57460;47.134;19.888;2023-05-14T04:09:59;12.66;72.96
70089;HTU21D;57460;47.134;19.888;2023-05-14T04:12:25;12.69;73.48
70089;HTU21D;57460;47.134;19.888;2023-05-14T04:14:51;12.66;73.99
70089;HTU21D;57460;47.134;19.888;2023-05-14T04:17:17;12.73;72.99
70089;HTU21D;57460;47.134;19.888;2023-05-14T04:19:43;12.75;73.34
70089;HTU21D;57460;47.134;19.888;2023-05-14T04:22:09;12.77;73.28
70089;HTU21D;57460;47.134;19.888;2023-05-14T04:24:35;12.84;72.41
70089;HTU21D;57460;47.134;19.888;2023-05-14T04:27:04;12.84;73.43
70089;HTU21D;57460;47.134;19.888;2023-05-14T04:29:31;12.88;73.67
70089;HTU21D;57460;47.134;19.888;2023-05-14T04:31:57;12.93;73.04
70089;HTU21D;57460;47.134;19.888;2023-05-14T04:34:23;12.99;73.15
70089;HTU21D;57460;47.134;19.888;2023-05-14T04:36:49;13.03;72.99
70089;HTU21D;57460;47.134;19.888;2023-05-14T04:39:15;13.07;72.80
70089;HTU21D;57460;47.134;19.888;2023-05-14T04:41:41;13.10;72.82
70089;HTU21D;57460;47.134;19.888;2023-05-14T04:44:07;13.12;72.64
70089;HTU21D;57460;47.134;19.888;2023-05-14T04:46:33;13.11;72.41
70089;HTU21D;57460;47.134;19.888;2023-05-14T04:49:05;13.14;72.93
70089;HTU21D;57460;47.134;19.888;2023-05-14T04:51:31;13.15;73.09
70089;HTU21D;57460;47.134;19.888;2023-05-14T04:53:57;13.17;73.09
70089;HTU21D;57460;47.134;19.888;2023-05-14T04:56:24;13.17;72.77
70089;HTU21D;57460;47.134;19.888;2023-05-14T04:58:50;13.18;73.53
70089;HTU21D;57460;47.134;19.888;2023-05-14T05:01:16;13.17;73.20
70089;HTU21D;57460;47.134;19.888;2023-05-14T05:03:42;13.20;72.94
70089;HTU21D;57460;47.134;19.888;2023-05-14T05:06:08;13.25;72.38
70089;HTU21D;57460;47.134;19.888;2023-05-14T05:08:35;13.31;72.03
70089;HTU21D;57460;47.134;19.888;2023-05-14T05:11:01;13.34;72.02
70089;HTU21D;57460;47.134;19.888;2023-05-14T05:13:27;13.37;72.58
70089;HTU21D;57460;47.134;19.888;2023-05-14T05:15:52;13.40;72.06
70089;HTU21D;57460;47.134;19.888;2023-05-14T05:18:18;13.41;72.64
70089;HTU21D;57460;47.134;19.888;2023-05-14T05:20:44;13.47;72.27
70089;HTU21D;57460;47.134;19.888;2023-05-14T05:23:10;13.50;72.48
70089;HTU21D;57460;47.134;19.888;2023-05-14T05:25:36;13.54;72.16
70089;HTU21D;57460;47.134;19.888;2023-05-14T05:28:02;13.58;72.03
70089;HTU21D;57460;47.134;19.888;2023-05-14T05:30:28;13.60;71.65
70089;HTU21D;57460;47.134;19.888;2023-05-14T05:32:54;13.63;71.90
70089;HTU21D;57460;47.134;19.888;2023-05-14T05:35:22;13.68;71.77
70089;HTU21D;57460;47.134;19.888;2023-05-14T05:37:47;13.71;71.68
70089;HTU21D;57460;47.134;19.888;2023-05-14T05:40:13;13.76;71.06
70089;HTU21D;57460;47.134;19.888;2023-05-14T05:42:40;13.76;71.64
70089;HTU21D;57460;47.134;19.888;2023-05-14T05:45:07;13.81;71.22
70089;HTU21D;57460;47.134;19.888;2023-05-14T05:47:33;13.83;71.44
70089;HTU21D;57460;47.134;19.888;2023-05-14T05:49:59;13.83;71.60
70089;HTU21D;57460;47.134;19.888;2023-05-14T05:52:25;13.83;71.56
70089;HTU21D;57460;47.134;19.888;2023-05-14T05:54:50;13.84;71.55
70089;HTU21D;57460;47.134;19.888;2023-05-14T05:57:17;13.88;71.63
70089;HTU21D;57460;47.134;19.888;2023-05-14T05:59:42;13.94;71.51
70089;HTU21D;57460;47.134;19.888;2023-05-14T06:02:08;13.98;71.74
70089;HTU21D;57460;47.134;19.888;2023-05-14T06:04:34;14.05;70.62
70089;HTU21D;57460;47.134;19.888;2023-05-14T06:13:23;14.07;71.29
70089;HTU21D;57460;47.134;19.888;2023-05-14T06:15:52;14.08;70.74
70089;HTU21D;57460;47.134;19.888;2023-05-14T06:21:40;14.20;71.05
70089;HTU21D;57460;47.134;19.888;2023-05-14T06:24:12;14.24;70.63
70089;HTU21D;57460;47.134;19.888;2023-05-14T06:26:38;14.28;70.93
70089;HTU21D;57460;47.134;19.888;2023-05-14T06:29:04;14.33;70.14
70089;HTU21D;57460;47.134;19.888;2023-05-14T06:31:30;14.43;69.26
70089;HTU21D;57460;47.134;19.888;2023-05-14T06:33:56;14.41;70.83
70089;HTU21D;57460;47.134;19.888;2023-05-14T06:36:22;14.49;69.84
70089;HTU21D;57460;47.134;19.888;2023-05-14T06:38:48;14.53;69.58
70089;HTU21D;57460;47.134;19.888;2023-05-14T06:41:14;14.52;69.84
70089;HTU21D;57460;47.134;19.888;2023-05-14T06:43:40;14.54;69.25
70089;HTU21D;57460;47.134;19.888;2023-05-14T06:46:09;14.57;69.77
70089;HTU21D;57460;47.134;19.888;2023-05-14T06:48:37;14.65;68.99
70089;HTU21D;57460;47.134;19.888;2023-05-14T06:51:03;14.60;69.70
70089;HTU21D;57460;47.134;19.888;2023-05-14T06:53:32;14.63;70.68
70089;HTU21D;57460;47.134;19.888;2023-05-14T06:55:58;14.66;69.78
70089;HTU21D;57460;47.134;19.888;2023-05-14T06:58:27;14.67;69.56
70089;HTU21D;57460;47.134;19.888;2023-05-14T07:00:53;14.69;69.41
70089;HTU21D;57460;47.134;19.888;2023-05-14T07:03:22;14.73;70.19
70089;HTU21D;57460;47.134;19.888;2023-05-14T07:05:48;14.78;69.44
70089;HTU21D;57460;47.134;19.888;2023-05-14T07:08:14;14.78;69.83
70089;HTU21D;57460;47.134;19.888;2023-05-14T07:10:40;14.81;69.67
70089;HTU21D;57460;47.134;19.888;2023-05-14T07:13:10;14.84;69.98
70089;HTU21D;57460;47.134;19.888;2023-05-14T07:15:36;14.88;70.87
70089;HTU21D;57460;47.134;19.888;2023-05-14T07:18:05;14.85;70.12
70089;HTU21D;57460;47.134;19.888;2023-05-14T07:20:45;14.80;70.52
70089;HTU21D;57460;47.134;19.888;2023-05-14T07:23:20;14.85;71.42
70089;HTU21D;57460;47.134;19.888;2023-05-14T07:25:46;14.87;70.03
70089;HTU21D;57460;47.134;19.888;2023-05-14T07:28:12;14.91;70.94
70089;HTU21D;57460;47.134;19.888;2023-05-14T07:30:47;14.99;70.38
70089;HTU21D;57460;47.134;19.888;2023-05-14T07:33:13;15.07;70.42
70089;HTU21D;57460;47.134;19.888;2023-05-14T07:35:39;15.08;71.66
70089;HTU21D;57460;47.134;19.888;2023-05-14T07:38:06;15.09;70.64
70089;HTU21D;57460;47.134;19.888;2023-05-14T07:40:35;15.11;70.74
70089;HTU21D;57460;47.134;19.888;2023-05-14T07:43:03;15.13;71.32
70089;HTU21D;57460;47.134;19.888;2023-05-14T07:45:29;15.21;70.39
70089;HTU21D;57460;47.134;19.888;2023-05-14T07:48:01;15.23;70.90
70089;HTU21D;57460;47.134;19.888;2023-05-14T07:50:27;15.28;70.68
70089;HTU21D;57460;47.134;19.888;2023-05-14T07:53:20;15.28;71.07
70089;HTU21D;57460;47.134;19.888;2023-05-14T07:55:49;15.19;71.78
70089;HTU21D;57460;47.134;19.888;2023-05-14T07:58:19;15.21;72.09
70089;HTU21D;57460;47.134;19.888;2023-05-14T08:01:06;15.31;71.38
70089;HTU21D;57460;47.134;19.888;2023-05-14T08:03:51;15.41;71.13
70089;HTU21D;57460;47.134;19.888;2023-05-14T08:06:42;15.55;71.47
70089;HTU21D;57460;47.134;19.888;2023-05-14T08:09:11;15.70;71.56
70089;HTU21D;57460;47.134;19.888;2023-05-14T08:15:04;15.96;69.40
70089;HTU21D;57460;47.134;19.888;2023-05-14T08:20:38;16.11;69.29
70089;HTU21D;57460;47.134;19.888;2023-05-14T08:23:04;16.14;69.82
70089;HTU21D;57460;47.134;19.888;2023-05-14T08:25:32;16.17;68.50
70089;HTU21D;57460;47.134;19.888;2023-05-14T08:28:01;16.20;68.81
70089;HTU21D;57460;47.134;19.888;2023-05-14T08:30:30;16.31;68.26
70089;HTU21D;57460;47.134;19.888;2023-05-14T08:33:00;16.37;69.52
70089;HTU21D;57460;47.134;19.888;2023-05-14T08:38:18;16.36;68.23
70089;HTU21D;57460;47.134;19.888;2023-05-14T08:44:32;16.51;68.23
70089;HTU21D;57460;47.134;19.888;2023-05-14T08:47:25;16.51;68.40
70089;HTU21D;57460;47.134;19.888;2023-05-14T08:50:16;16.54;69.31
70089;HTU21D;57460;47.134;19.888;2023-05-14T08:52:59;16.56;68.47
70089;HTU21D;57460;47.134;19.888;2023-05-14T08:55:46;16.57;67.61
70089;HTU21D;57460;47.134;19.888;2023-05-14T08:58:16;16.59;67.55
70089;HTU21D;57460;47.134;19.888;2023-05-14T09:00:45;16.57;67.54
70089;HTU21D;57460;47.134;19.888;2023-05-14T09:03:17;16.50;68.58
70089;HTU21D;57460;47.134;19.888;2023-05-14T09:05:50;16.50;67.72
70089;HTU21D;57460;47.134;19.888;2023-05-14T09:08:16;16.44;68.94
70089;HTU21D;57460;47.134;19.888;2023-05-14T09:10:46;16.37;68.46
70089;HTU21D;57460;47.134;19.888;2023-05-14T09:13:38;16.37;69.01
70089;HTU21D;57460;47.134;19.888;2023-05-14T09:16:10;16.33;69.63
70089;HTU21D;57460;47.134;19.888;2023-05-14T09:21:33;16.29;69.36
70089;HTU21D;57460;47.134;19.888;2023-05-14T09:24:00;16.28;69.45
70089;HTU21D;57460;47.134;19.888;2023-05-14T09:26:53;16.22;70.35
70089;HTU21D;57460;47.134;19.888;2023-05-14T09:29:19;16.22;70.58
70089;HTU21D;57460;47.134;19.888;2023-05-14T09:31:46;16.17;70.23
70089;HTU21D;57460;47.134;19.888;2023-05-14T09:34:28;16.15;70.59
70089;HTU21D;57460;47.134;19.888;2023-05-14T09:37:08;16.24;70.44
70089;HTU21D;57460;47.134;19.888;2023-05-14T09:39:44;16.28;70.49
70089;HTU21D;57460;47.134;19.888;2023-05-14T09:42:37;16.31;70.71
70089;HTU21D;57460;47.134;19.888;2023-05-14T09:45:05;16.33;71.67
70089;HTU21D;57460;47.134;19.888;2023-05-14T09:47:31;16.35;70.55
70089;HTU21D;57460;47.134;19.888;2023-05-14T09:49:59;16.35;72.12
70089;HTU21D;57460;47.134;19.888;2023-05-14T09:52:25;16.44;71.01
70089;HTU21D;57460;47.134;19.888;2023-05-14T09:54:51;16.44;70.73
70089;HTU21D;57460;47.134;19.888;2023-05-14T09:57:18;16.41;70.45
70089;HTU21D;57460;47.134;19.888;2023-05-14T09:59:45;16.33;69.53
70089;HTU21D;57460;47.134;19.888;2023-05-14T10:02:25;16.31;71.58
70089;HTU21D;57460;47.134;19.888;2023-05-14T10:04:53;16.34;70.66
70089;HTU21D;57460;47.134;19.888;2023-05-14T10:07:28;16.29;70.87
70089;HTU21D;57460;47.134;19.888;2023-05-14T10:10:02;16.30;70.17
70089;HTU21D;57460;47.134;19.888;2023-05-14T10:12:38;16.22;70.52
70089;HTU21D;57460;47.134;19.888;2023-05-14T10:15:18;16.22;70.77
70089;HTU21D;57460;47.134;19.888;2023-05-14T10:17:54;16.17;71.34
70089;HTU21D;57460;47.134;19.888;2023-05-14T10:20:22;16.16;72.13
70089;HTU21D;57460;47.134;19.888;2023-05-14T10:22:50;16.13;71.31
70089;HTU21D;57460;47.134;19.888;2023-05-14T10:25:16;16.16;71.95
70089;HTU21D;57460;47.134;19.888;2023-05-14T10:27:43;16.20;71.84
70089;HTU21D;57460;47.134;19.888;2023-05-14T10:30:12;16.21;72.31
70089;HTU21D;57460;47.134;19.888;2023-05-14T10:32:39;16.22;72.36
70089;HTU21D;57460;47.134;19.888;2023-05-14T10:35:19;16.32;72.17
70089;HTU21D;57460;47.134;19.888;2023-05-14T10:37:50;16.32;72.32
70089;HTU21D;57460;47.134;19.888;2023-05-14T10:40:16;16.46;71.91
70089;HTU21D;57460;47.134;19.888;2023-05-14T10:42:45;16.54;72.43
70089;HTU21D;57460;47.134;19.888;2023-05-14T10:45:14;16.62;72.19
70089;HTU21D;57460;47.134;19.888;2023-05-14T10:47:47;16.71;71.57
70089;HTU21D;57460;47.134;19.888;2023-05-14T10:50:18;16.79;72.32
70089;HTU21D;57460;47.134;19.888;2023-05-14T10:52:44;16.87;71.74
70089;HTU21D;57460;47.134;19.888;2023-05-14T10:55:15;16.92;72.46
70089;HTU21D;57460;47.134;19.888;2023-05-14T10:57:43;16.99;71.83
70089;HTU21D;57460;47.134;19.888;2023-05-14T11:00:10;17.05;71.92
70089;HTU21D;57460;47.134;19.888;2023-05-14T11:02:39;16.90;67.70
70089;HTU21D;57460;47.134;19.888;2023-05-14T11:05:11;16.85;68.30
70089;HTU21D;57460;47.134;19.888;2023-05-14T11:07:40;16.71;68.40
70089;HTU21D;57460;47.134;19.888;2023-05-14T11:10:09;16.67;68.69
70089;HTU21D;57460;47.134;19.888;2023-05-14T11:12:37;16.59;67.97
70089;HTU21D;57460;47.134;19.888;2023-05-14T11:15:06;16.60;68.17
70089;HTU21D;57460;47.134;19.888;2023-05-14T11:17:35;16.51;67.96
70089;HTU21D;57460;47.134;19.888;2023-05-14T11:20:02;16.41;67.72
70089;HTU21D;57460;47.134;19.888;2023-05-14T11:22:29;16.43;68.40
70089;HTU21D;57460;47.134;19.888;2023-05-14T11:24:55;16.36;67.89
70089;HTU21D;57460;47.134;19.888;2023-05-14T11:27:22;16.31;67.16
70089;HTU21D;57460;47.134;19.888;2023-05-14T11:29:49;16.25;66.64
70089;HTU21D;57460;47.134;19.888;2023-05-14T11:32:16;16.19;66.55
70089;HTU21D;57460;47.134;19.888;2023-05-14T11:34:43;16.11;66.62
70089;HTU21D;57460;47.134;19.888;2023-05-14T11:37:10;16.11;67.27
70089;HTU21D;57460;47.134;19.888;2023-05-14T11:39:50;16.12;66.81
70089;HTU21D;57460;47.134;19.888;2023-05-14T11:42:17;16.08;67.17
70089;HTU21D;57460;47.134;19.888;2023-05-14T11:44:49;16.01;68.04
70089;HTU21D;57460;47.134;19.888;2023-05-14T11:47:20;16.00;67.08
70089;HTU21D;57460;47.134;19.888;2023-05-14T11:49:46;16.03;68.60
70089;HTU21D;57460;47.134;19.888;2023-05-14T11:52:14;16.02;68.67
70089;HTU21D;57460;47.134;19.888;2023-05-14T11:54:44;15.96;69.08
70089;HTU21D;57460;47.134;19.888;2023-05-14T11:57:16;15.89;70.37
70089;HTU21D;57460;47.134;19.888;2023-05-14T11:59:43;15.89;70.35
70089;HTU21D;57460;47.134;19.888;2023-05-14T12:02:12;15.86;70.63
70089;HTU21D;57460;47.134;19.888;2023-05-14T12:04:40;15.81;71.03
70089;HTU21D;57460;47.134;19.888;2023-05-14T12:07:11;15.77;70.73
70089;HTU21D;57460;47.134;19.888;2023-05-14T12:09:41;15.75;71.97
70089;HTU21D;57460;47.134;19.888;2023-05-14T12:12:09;15.66;72.70
70089;HTU21D;57460;47.134;19.888;2023-05-14T12:14:40;15.59;74.04
70089;HTU21D;57460;47.134;19.888;2023-05-14T12:17:22;15.61;73.46
70089;HTU21D;57460;47.134;19.888;2023-05-14T12:19:50;15.60;73.92
70089;HTU21D;57460;47.134;19.888;2023-05-14T12:22:19;15.58;74.87
70089;HTU21D;57460;47.134;19.888;2023-05-14T12:24:57;15.62;74.31
70089;HTU21D;57460;47.134;19.888;2023-05-14T12:27:24;15.71;74.43
70089;HTU21D;57460;47.134;19.888;2023-05-14T12:30:02;15.76;72.78
70089;HTU21D;57460;47.134;19.888;2023-05-14T12:32:36;15.81;73.19
70089;HTU21D;57460;47.134;19.888;2023-05-14T12:35:04;15.70;74.00
70089;HTU21D;57460;47.134;19.888;2023-05-14T12:37:30;15.69;73.48
70089;HTU21D;57460;47.134;19.888;2023-05-14T12:39:56;15.67;75.02
70089;HTU21D;57460;47.134;19.888;2023-05-14T12:42:21;15.61;74.92
70089;HTU21D;57460;47.134;19.888;2023-05-14T12:44:48;15.54;75.99
70089;HTU21D;57460;47.134;19.888;2023-05-14T12:47:14;15.55;74.38
70089;HTU21D;57460;47.134;19.888;2023-05-14T12:49:41;15.57;74.71
70089;HTU21D;57460;47.134;19.888;2023-05-14T12:52:07;15.65;74.59
70089;HTU21D;57460;47.134;19.888;2023-05-14T12:54:33;15.61;73.80
70089;HTU21D;57460;47.134;19.888;2023-05-14T12:56:59;15.54;75.44
70089;HTU21D;57460;47.134;19.888;2023-05-14T12:59:25;15.52;74.96
70089;HTU21D;57460;47.134;19.888;2023-05-14T13:01:50;15.47;74.81
70089;HTU21D;57460;47.134;19.888;2023-05-14T13:04:16;15.44;75.23
70089;HTU21D;57460;47.134;19.888;2023-05-14T13:06:42;15.48;75.12
70089;HTU21D;57460;47.134;19.888;2023-05-14T13:09:09;15.53;76.74
70089;HTU21D;57460;47.134;19.888;2023-05-14T13:11:35;15.58;75.10
70089;HTU21D;57460;47.134;19.888;2023-05-14T13:14:01;15.55;75.11
70089;HTU21D;57460;47.134;19.888;2023-05-14T13:16:28;15.56;74.51
70089;HTU21D;57460;47.134;19.888;2023-05-14T13:18:54;15.57;75.33
70089;HTU21D;57460;47.134;19.888;2023-05-14T13:21:22;15.56;75.20
70089;HTU21D;57460;47.134;19.888;2023-05-14T13:23:48;15.57;76.37
70089;HTU21D;57460;47.134;19.888;2023-05-14T13:26:14;15.56;74.83
70089;HTU21D;57460;47.134;19.888;2023-05-14T13:28:41;15.51;75.85
70089;HTU21D;57460;47.134;19.888;2023-05-14T13:31:12;15.45;75.92
70089;HTU21D;57460;47.134;19.888;2023-05-14T13:33:42;15.45;75.25
70089;HTU21D;57460;47.134;19.888;2023-05-14T13:36:11;15.44;76.26
70089;HTU21D;57460;47.134;19.888;2023-05-14T13:38:38;15.45;75.31
70089;HTU21D;57460;47.134;19.888;2023-05-14T13:41:04;15.38;76.63
70089;HTU21D;57460;47.134;19.888;2023-05-14T13:43:34;15.41;75.34
70089;HTU21D;57460;47.134;19.888;2023-05-14T13:46:01;15.42;75.35
70089;HTU21D;57460;47.134;19.888;2023-05-14T13:48:27;15.44;75.68
70089;HTU21D;57460;47.134;19.888;2023-05-14T13:50:53;15.42;76.37
70089;HTU21D;57460;47.134;19.888;2023-05-14T13:53:22;15.26;76.90
70089;HTU21D;57460;47.134;19.888;2023-05-14T13:55:48;15.16;77.08
70089;HTU21D;57460;47.134;19.888;2023-05-14T13:58:15;15.17;77.69
70089;HTU21D;57460;47.134;19.888;2023-05-14T14:00:41;15.04;78.07
70089;HTU21D;57460;47.134;19.888;2023-05-14T14:03:07;14.98;77.79
70089;HTU21D;57460;47.134;19.888;2023-05-14T14:05:36;14.93;78.88
70089;HTU21D;57460;47.134;19.888;2023-05-14T14:08:02;14.88;78.65
70089;HTU21D;57460;47.134;19.888;2023-05-14T14:10:29;14.83;78.90
70089;HTU21D;57460;47.134;19.888;2023-05-14T14:12:55;14.78;79.17
70089;HTU21D;57460;47.134;19.888;2023-05-14T14:15:21;14.77;79.10
70089;HTU21D;57460;47.134;19.888;2023-05-14T14:17:47;14.80;78.08
70089;HTU21D;57460;47.134;19.888;2023-05-14T14:20:14;14.73;78.54
70089;HTU21D;57460;47.134;19.888;2023-05-14T14:22:41;14.72;79.67
70089;HTU21D;57460;47.134;19.888;2023-05-14T14:25:07;14.72;78.97
70089;HTU21D;57460;47.134;19.888;2023-05-14T14:27:34;14.70;79.04
70089;HTU21D;57460;47.134;19.888;2023-05-14T14:30:12;14.65;80.15
70089;HTU21D;57460;47.134;19.888;2023-05-14T14:32:45;14.66;79.90
70089;HTU21D;57460;47.134;19.888;2023-05-14T14:35:13;14.71;78.34
70089;HTU21D;57460;47.134;19.888;2023-05-14T14:37:41;14.69;79.79
70089;HTU21D;57460;47.134;19.888;2023-05-14T14:40:08;14.73;78.12
70089;HTU21D;57460;47.134;19.888;2023-05-14T14:42:35;14.74;79.30
70089;HTU21D;57460;47.134;19.888;2023-05-14T14:45:02;14.78;78.94
70089;HTU21D;57460;47.134;19.888;2023-05-14T14:47:28;14.83;78.88
70089;HTU21D;57460;47.134;19.888;2023-05-14T14:49:55;14.89;78.05
70089;HTU21D;57460;47.134;19.888;2023-05-14T14:52:23;14.93;78.50
70089;HTU21D;57460;47.134;19.888;2023-05-14T14:54:49;14.92;80.00
70089;HTU21D;57460;47.134;19.888;2023-05-14T14:57:15;14.95;78.83
70089;HTU21D;57460;47.134;19.888;2023-05-14T14:59:41;14.97;77.81
70089;HTU21D;57460;47.134;19.888;2023-05-14T15:02:08;14.97;78.49
70089;HTU21D;57460;47.134;19.888;2023-05-14T15:04:35;14.94;79.73
70089;HTU21D;57460;47.134;19.888;2023-05-14T15:07:01;14.92;78.90
70089;HTU21D;57460;47.134;19.888;2023-05-14T15:09:27;14.93;78.46
70089;HTU21D;57460;47.134;19.888;2023-05-14T15:11:53;14.95;78.28
70089;HTU21D;57460;47.134;19.888;2023-05-14T15:14:19;14.95;77.76
70089;HTU21D;57460;47.134;19.888;2023-05-14T15:16:45;14.92;79.53
70089;HTU21D;57460;47.134;19.888;2023-05-14T15:19:11;14.92;78.23
70089;HTU21D;57460;47.134;19.888;2023-05-14T15:21:37;14.91;78.78
70089;HTU21D;57460;47.134;19.888;2023-05-14T15:24:10;14.93;77.50
70089;HTU21D;57460;47.134;19.888;2023-05-14T15:26:38;14.97;78.60
70089;HTU21D;57460;47.134;19.888;2023-05-14T15:29:04;14.98;79.09
70089;HTU21D;57460;47.134;19.888;2023-05-14T15:31:30;15.01;78.23
70089;HTU21D;57460;47.134;19.888;2023-05-14T15:33:57;15.01;78.12
70089;HTU21D;57460;47.134;19.888;2023-05-14T15:36:23;15.02;78.82